This is the latest recevied weather packets stored in our database for station/object KD8UYA. If no packets are shown the sender has not sent any weather packets the latest 10 day(s).
| Time | Temp. | Humidity | Pressure | Rain* | Wind** | Luminosity | Snow |
|---|---|---|---|---|---|---|---|
| 1778210125 | 7.22° C | 76% | 1011.7 hPa | 0 mm | - | - | - |
| 1778209225 | 6.11° C | 81% | 1011.8 hPa | 0 mm | - | - | - |
| 1778208327 | 6.11° C | 81% | 1011.8 hPa | 0 mm | - | - | - |
| 1778207425 | 6.11° C | 79% | 1011.7 hPa | 0 mm | - | - | - |
| 1778206524 | 6.67° C | 78% | 1011.5 hPa | 0 mm | - | - | - |
| 1778205624 | 6.67° C | 77% | 1011.5 hPa | 0 mm | - | - | - |
| 1778204722 | 6.67° C | 74% | 1011.3 hPa | 0 mm | - | - | - |
| 1778203822 | 7.22° C | 72% | 1011.4 hPa | 0 mm | - | - | - |
| 1778202922 | 7.78° C | 68% | 1011.2 hPa | 0 mm | - | - | - |
| 1778202021 | 8.89° C | 63% | 1011.1 hPa | 0 mm | - | - | - |
| 1778201121 | 10° C | 59% | 1011.1 hPa | 0 mm | - | - | - |
| 1778200220 | 10.56° C | 59% | 1011.1 hPa | 0 mm | - | - | - |
| 1778199381 | 10.56° C | 52% | 1010.9 hPa | 0 mm | - | - | - |
| 1778198419 | 11.11° C | 52% | 1010.8 hPa | 0 mm | - | - | - |
| 1778197530 | 11.67° C | 52% | 1010.7 hPa | 0 mm | - | - | - |
| 1778196622 | 11.67° C | 51% | 1010.7 hPa | 0 mm | - | - | - |
| 1778195717 | 11.67° C | 50% | 1010.6 hPa | 0 mm | - | - | - |
| 1778194818 | 12.22° C | 49% | 1010.8 hPa | 0 mm | - | - | - |
| 1778193915 | 12.22° C | 49% | 1010.8 hPa | 0 mm | - | - | - |
| 1778193015 | 12.78° C | 49% | 1010.7 hPa | 0 mm | - | - | - |
| 1778192113 | 12.22° C | 49% | 1010.8 hPa | 0 mm | - | - | - |
| 1778191213 | 12.22° C | 52% | 1010.7 hPa | 0 mm | - | - | - |
| 1778190312 | 11.67° C | 56% | 1010.6 hPa | 0 mm | - | - | - |
| 1778189420 | 11.67° C | 57% | 1010.5 hPa | 0 mm | - | - | - |
| 1778188511 | 11.67° C | 58% | 1010.5 hPa | 0 mm | - | - | - |
* Rain latest hour (hover to see other rain measurements)
** Current wind speed in m/s (hover to see current wind gust speed)